Time;durP1;ratioP1;P1;durP2;ratioP2;P2;SDS_P1;SDS_P2;PMS_P1;PMS_P2;Temp;Humidity;BMP_temperature;BMP_pressure;BME280_temperature;BME280_humidity;BME280_pressure;Samples;Min_cycle;Max_cycle;Signal;HPM_P1;HPM_P2
2023/02/03 00:02:10;;;;;;;3.65;1.02;;;30.10;48.50;;;;;;5013938;28;20018;-64
2023/02/03 00:04:37;;;;;;;5.25;1.20;;;30.00;46.90;;;;;;5006250;28;20509;-64
2023/02/03 00:07:05;;;;;;;3.67;0.65;;;30.30;44.40;;;;;;5012289;28;20033;-64
2023/02/03 00:09:32;;;;;;;5.90;0.80;;;30.50;47.30;;;;;;5001844;28;20017;-65
2023/02/03 00:11:59;;;;;;;3.80;1.02;;;30.70;46.00;;;;;;5019413;28;20471;-65
2023/02/03 00:14:27;;;;;;;4.25;0.90;;;30.70;46.80;;;;;;5009468;28;20058;-64
2023/02/03 00:16:54;;;;;;;3.58;0.85;;;31.00;46.50;;;;;;5008187;28;20116;-64
2023/02/03 00:19:21;;;;;;;2.63;1.00;;;30.80;44.70;;;;;;5009756;28;20053;-65
2023/02/03 00:21:48;;;;;;;4.97;1.08;;;30.30;45.70;;;;;;5014120;28;20578;-65
2023/02/03 00:24:19;;;;;;;6.47;0.60;;;30.20;45.60;;;;;;5008836;28;20065;-65
2023/02/03 00:26:46;;;;;;;5.78;1.38;;;30.20;46.10;;;;;;5008135;28;20487;-64
2023/02/03 00:29:13;;;;;;;3.35;0.75;;;30.40;47.80;;;;;;5013215;28;20033;-64
2023/02/03 00:31:41;;;;;;;4.10;0.80;;;30.30;43.90;;;;;;5016507;28;20121;-65
2023/02/03 00:34:08;;;;;;;2.00;0.82;;;30.30;44.30;;;;;;5018938;28;20032;-65
2023/02/03 00:36:36;;;;;;;3.08;0.60;;;30.30;46.80;;;;;;5014492;28;20185;-65
2023/02/03 00:39:03;;;;;;;2.40;0.68;;;30.50;46.50;;;;;;5015654;28;20076;-64
2023/02/03 00:41:31;;;;;;;2.88;0.50;;;30.80;47.10;;;;;;5024808;28;20064;-64
2023/02/03 00:43:58;;;;;;;3.58;0.85;;;30.80;44.90;;;;;;5008286;28;20065;-65
2023/02/03 00:46:26;;;;;;;2.90;0.73;;;30.60;44.50;;;;;;5008595;28;20032;-65
2023/02/03 00:48:53;;;;;;;2.65;0.63;;;30.50;43.70;;;;;;5017669;28;20117;-64
2023/02/03 00:51:20;;;;;;;6.00;1.15;;;30.60;46.90;;;;;;5008195;28;20022;-64
2023/02/03 00:53:48;;;;;;;3.45;0.75;;;30.80;45.80;;;;;;5016372;28;20025;-64
2023/02/03 00:56:16;;;;;;;2.65;0.60;;;31.20;47.70;;;;;;5028391;28;20021;-64
2023/02/03 00:58:43;;;;;;;3.70;0.70;;;31.30;43.40;;;;;;5011452;28;20053;-64
2023/02/03 01:01:10;;;;;;;2.28;0.55;;;31.10;45.60;;;;;;5009420;28;20021;-65
2023/02/03 01:03:38;;;;;;;2.58;0.80;;;31.40;46.30;;;;;;5010210;28;20486;-64
2023/02/03 01:06:14;;;;;;;3.22;0.73;;;31.70;48.70;;;;;;5014061;28;20029;-65
2023/02/03 01:08:43;;;;;;;8.48;0.88;;;32.00;46.30;;;;;;5016125;28;20030;-65
2023/02/03 01:11:13;;;;;;;1.67;0.88;;;32.10;46.70;;;;;;5023356;28;20384;-65
2023/02/03 01:13:41;;;;;;;6.75;1.23;;;32.30;46.10;;;;;;5020086;28;20155;-64
2023/02/03 01:16:10;;;;;;;4.05;1.05;;;32.50;44.00;;;;;;5011920;28;20030;-65
2023/02/03 01:18:38;;;;;;;2.95;0.65;;;32.30;44.50;;;;;;5012630;28;20638;-65
2023/02/03 01:21:07;;;;;;;3.25;1.00;;;32.40;45.00;;;;;;5010109;28;20514;-64
2023/02/03 01:23:36;;;;;;;4.40;0.77;;;32.30;45.00;;;;;;4992071;28;20065;-64
2023/02/03 01:26:08;;;;;;;2.05;0.70;;;32.40;45.00;;;;;;5010091;28;20026;-65
2023/02/03 01:28:36;;;;;;;3.35;1.00;;;32.70;45.00;;;;;;5015381;28;20101;-65
2023/02/03 01:31:19;;;;;;;3.95;0.70;;;32.10;44.20;;;;;;5019622;28;20479;-65
2023/02/03 01:33:47;;;;;;;4.43;1.00;;;31.90;44.50;;;;;;5015560;28;20187;-65
2023/02/03 01:36:16;;;;;;;2.33;0.70;;;31.90;45.60;;;;;;5018344;28;20351;-64
2023/02/03 01:38:45;;;;;;;12.00;1.35;;;31.80;43.80;;;;;;5007325;28;20112;-65
2023/02/03 01:41:18;;;;;;;3.67;0.70;;;31.50;44.50;;;;;;5008375;28;20105;-65
2023/02/03 01:43:49;;;;;;;3.10;0.65;;;31.50;46.30;;;;;;5009830;28;20042;-65
2023/02/03 01:46:39;;;;;;;1.70;0.47;;;31.70;45.00;;;;;;5008359;28;20143;-65
2023/02/03 01:49:18;;;;;;;1.30;0.40;;;31.90;45.20;;;;;;5006924;28;20525;-65
2023/02/03 01:51:47;;;;;;;10.23;0.90;;;31.90;44.20;;;;;;4978042;28;20033;-65
2023/02/03 01:54:28;;;;;;;14.13;1.30;;;32.00;44.00;;;;;;5014533;28;20018;-65
2023/02/03 01:57:03;;;;;;;4.78;0.70;;;31.60;44.60;;;;;;5009251;28;20201;-65
2023/02/03 01:59:33;;;;;;;3.70;0.68;;;31.70;48.00;;;;;;5012165;28;20881;-65
2023/02/03 02:02:02;;;;;;;4.70;0.98;;;31.70;47.10;;;;;;5014532;28;20053;-65
2023/02/03 02:04:54;;;;;;;3.22;0.80;;;31.90;47.60;;;;;;5007225;28;20045;-65
2023/02/03 02:07:23;;;;;;;4.68;0.80;;;32.30;44.20;;;;;;5009934;28;20035;-65
2023/02/03 02:09:51;;;;;;;4.65;0.90;;;32.20;44.50;;;;;;5010580;28;20038;-64
2023/02/03 02:12:18;;;;;;;3.17;0.60;;;32.20;43.80;;;;;;5023207;28;20028;-65
2023/02/03 02:14:47;;;;;;;3.25;0.65;;;31.90;43.10;;;;;;5015811;28;20046;-65
2023/02/03 02:17:20;;;;;;;5.82;0.85;;;31.70;45.50;;;;;;5019823;28;20029;-65
2023/02/03 02:20:02;;;;;;;3.55;1.02;;;31.60;44.80;;;;;;5015499;28;20449;-64
2023/02/03 02:22:44;;;;;;;2.05;0.70;;;31.10;41.60;;;;;;5016700;28;20058;-65
2023/02/03 02:25:27;;;;;;;2.67;0.77;;;31.40;46.70;;;;;;5016937;28;20073;-65
2023/02/03 02:28:09;;;;;;;2.50;0.90;;;31.70;48.10;;;;;;5013586;28;20501;-65
2023/02/03 02:30:50;;;;;;;2.92;0.60;;;31.70;44.80;;;;;;5025426;28;20505;-65
2023/02/03 02:33:42;;;;;;;2.75;0.68;;;31.70;47.40;;;;;;5014234;28;20029;-65
2023/02/03 02:36:34;;;;;;;2.60;0.85;;;32.00;46.70;;;;;;5010587;28;20030;-65
2023/02/03 02:39:28;;;;;;;2.80;1.00;;;32.10;44.60;;;;;;5018973;28;20064;-65
2023/02/03 02:42:15;;;;;;;2.53;0.60;;;32.30;43.00;;;;;;5014460;28;20553;-64
2023/02/03 02:44:49;;;;;;;4.40;0.68;;;32.50;48.20;;;;;;5010253;28;20057;-65
2023/02/03 02:47:20;;;;;;;3.78;0.60;;;32.50;42.10;;;;;;5014207;28;20057;-66
2023/02/03 02:50:05;;;;;;;6.47;1.70;;;32.20;41.50;;;;;;5013481;28;20123;-66
2023/02/03 02:52:37;;;;;;;3.13;0.75;;;32.00;42.30;;;;;;5008131;28;20056;-65
2023/02/03 02:55:16;;;;;;;8.43;0.95;;;31.70;41.80;;;;;;5012515;28;20033;-65
2023/02/03 02:57:45;;;;;;;2.75;1.33;;;31.70;44.30;;;;;;5018372;28;20025;-65
2023/02/03 03:00:14;;;;;;;3.35;0.70;;;31.40;46.20;;;;;;5024795;28;20123;-65
2023/02/03 03:02:41;;;;;;;6.32;0.77;;;31.80;49.80;;;;;;5012625;28;20022;-65
2023/02/03 03:05:11;;;;;;;6.72;0.75;;;32.30;45.30;;;;;;5016369;28;20037;-65
2023/02/03 03:07:54;;;;;;;3.90;0.80;;;32.60;43.40;;;;;;5011685;28;20029;-65
2023/02/03 03:10:26;;;;;;;3.50;0.80;;;32.50;43.30;;;;;;5017108;28;20025;-66
2023/02/03 03:12:59;;;;;;;3.00;0.63;;;32.10;43.90;;;;;;5026812;28;20094;-66
2023/02/03 03:15:30;;;;;;;3.83;0.90;;;31.60;42.00;;;;;;5008809;28;20034;-66
2023/02/03 03:18:20;;;;;;;4.63;0.80;;;31.80;44.10;;;;;;5012908;28;20549;-64
2023/02/03 03:20:51;;;;;;;4.60;0.70;;;32.00;43.80;;;;;;4968933;28;20038;-65
2023/02/03 03:23:28;;;;;;;3.08;0.80;;;32.10;44.00;;;;;;5009793;28;20026;-65
2023/02/03 03:26:12;;;;;;;4.28;0.80;;;32.10;42.40;;;;;;5007697;28;20021;-65
2023/02/03 03:28:53;;;;;;;4.15;0.80;;;32.50;46.20;;;;;;5016683;28;20026;-65
2023/02/03 03:31:20;;;;;;;2.13;0.60;;;32.40;41.50;;;;;;5021656;28;20050;-65
2023/02/03 03:33:48;;;;;;;3.75;0.63;;;32.70;44.10;;;;;;5008755;28;20032;-65
2023/02/03 03:36:24;;;;;;;5.30;0.80;;;32.90;42.40;;;;;;5013662;28;20030;-65
2023/02/03 03:39:20;;;;;;;7.68;0.80;;;33.10;42.80;;;;;;5015054;28;20458;-65
2023/02/03 03:42:02;;;;;;;2.58;0.70;;;33.30;41.30;;;;;;5010109;28;20064;-65
2023/02/03 03:44:39;;;;;;;2.60;0.60;;;33.10;41.60;;;;;;5009296;28;20048;-65
2023/02/03 03:47:24;;;;;;;3.65;0.75;;;33.30;43.50;;;;;;5014572;28;21556;-67
2023/02/03 03:49:53;;;;;;;2.72;0.60;;;33.20;40.60;;;;;;5012343;28;20398;-67
2023/02/03 03:52:27;;;;;;;3.60;1.20;;;33.00;40.80;;;;;;5012044;28;20033;-67
2023/02/03 03:54:55;;;;;;;3.58;0.65;;;33.00;43.10;;;;;;5006917;28;20033;-67
2023/02/03 03:57:48;;;;;;;4.22;0.65;;;33.10;43.80;;;;;;5012995;28;20034;-68
2023/02/03 04:00:20;;;;;;;3.60;0.80;;;32.70;43.10;;;;;;5015152;28;20139;-68
2023/02/03 04:02:53;;;;;;;4.50;0.80;;;32.70;44.30;;;;;;5022621;28;20018;-67
2023/02/03 04:05:21;;;;;;;3.55;0.80;;;32.80;43.70;;;;;;5010931;28;20037;-68
2023/02/03 04:07:48;;;;;;;5.47;0.68;;;32.90;43.60;;;;;;5013311;28;20025;-68
2023/02/03 04:10:21;;;;;;;6.13;0.75;;;33.10;45.70;;;;;;5017611;28;20056;-67
2023/02/03 04:12:49;;;;;;;3.03;0.70;;;33.00;42.50;;;;;;5011084;28;20376;-62
2023/02/03 04:15:16;;;;;;;4.20;0.80;;;33.00;44.60;;;;;;5022737;28;21309;-67
2023/02/03 04:17:44;;;;;;;4.15;0.88;;;33.10;42.40;;;;;;5008248;28;20121;-68
2023/02/03 04:20:12;;;;;;;2.05;0.73;;;33.10;44.00;;;;;;4997766;28;20050;-67
2023/02/03 04:22:40;;;;;;;6.88;0.65;;;32.90;42.10;;;;;;4993748;28;20029;-67
2023/02/03 04:25:07;;;;;;;4.47;0.80;;;32.70;41.60;;;;;;5006234;28;20034;-68
2023/02/03 04:27:35;;;;;;;3.60;0.80;;;32.50;42.50;;;;;;5007152;28;20030;-67
2023/02/03 04:30:03;;;;;;;3.13;0.75;;;32.50;44.30;;;;;;5009437;28;20535;-67
2023/02/03 04:32:31;;;;;;;8.18;0.82;;;32.90;43.50;;;;;;5006612;28;20032;-67
2023/02/03 04:34:58;;;;;;;2.03;0.75;;;33.00;41.10;;;;;;5010582;28;20494;-67
2023/02/03 04:37:26;;;;;;;2.58;0.85;;;32.90;41.80;;;;;;5008391;28;20925;-67
2023/02/03 04:39:57;;;;;;;2.83;0.70;;;32.80;39.90;;;;;;4997464;28;20226;-65
2023/02/03 04:42:25;;;;;;;3.90;0.60;;;32.00;41.40;;;;;;5009946;28;20061;-68
2023/02/03 04:44:52;;;;;;;4.57;0.50;;;31.30;42.80;;;;;;5008711;28;20033;-66
2023/02/03 04:47:20;;;;;;;2.42;0.75;;;31.10;41.50;;;;;;5021806;28;20033;-67
2023/02/03 04:49:48;;;;;;;3.28;0.75;;;30.70;42.20;;;;;;5011093;28;20089;-67
2023/02/03 04:52:15;;;;;;;3.63;0.82;;;30.80;41.90;;;;;;5021894;28;20021;-67
2023/02/03 04:54:43;;;;;;;1.35;0.40;;;31.10;41.80;;;;;;5011283;28;20137;-67
2023/02/03 04:57:10;;;;;;;3.42;0.70;;;31.20;42.00;;;;;;5012224;28;20104;-66
2023/02/03 04:59:38;;;;;;;2.45;0.55;;;31.10;40.40;;;;;;5019973;28;20033;-67
2023/02/03 05:02:07;;;;;;;4.57;0.82;;;31.10;41.10;;;;;;5013826;28;20546;-67
2023/02/03 05:04:34;;;;;;;2.50;0.70;;;31.20;42.00;;;;;;5008748;28;20360;-66
2023/02/03 05:07:02;;;;;;;3.00;1.08;;;31.50;41.60;;;;;;5008926;28;20037;-66
2023/02/03 05:09:29;;;;;;;3.58;0.60;;;31.50;39.70;;;;;;5013356;28;20125;-66
2023/02/03 05:11:56;;;;;;;3.17;0.80;;;31.40;41.10;;;;;;5001192;28;20573;-67
2023/02/03 05:14:24;;;;;;;4.38;0.55;;;31.40;44.20;;;;;;4990706;28;21543;-67
2023/02/03 05:16:51;;;;;;;3.03;0.70;;;31.70;41.40;;;;;;5006697;28;20026;-69
2023/02/03 05:19:18;;;;;;;7.05;0.90;;;32.10;40.80;;;;;;5012198;28;20076;-68
2023/02/03 05:21:46;;;;;;;3.05;0.90;;;32.00;40.80;;;;;;5016893;28;20014;-67
2023/02/03 05:24:13;;;;;;;5.22;1.00;;;31.40;40.30;;;;;;5005898;28;20066;-66
2023/02/03 05:26:41;;;;;;;5.30;1.25;;;31.00;42.70;;;;;;5005214;28;20145;-66
2023/02/03 05:29:10;;;;;;;2.92;1.00;;;31.30;42.00;;;;;;5003141;28;20116;-66
2023/02/03 05:31:38;;;;;;;3.58;0.98;;;31.20;40.90;;;;;;5010097;28;20379;-66
2023/02/03 05:34:05;;;;;;;5.95;0.82;;;31.20;39.70;;;;;;5014611;28;20267;-65
2023/02/03 05:36:32;;;;;;;3.75;0.70;;;30.80;41.00;;;;;;5018495;28;20029;-64
2023/02/03 05:39:00;;;;;;;4.78;0.70;;;30.60;40.50;;;;;;5017952;28;20022;-64
2023/02/03 05:44:12;;;;;;;3.08;0.95;;;30.50;42.20;;;;;;5010726;28;20048;-66
2023/02/03 05:46:40;;;;;;;8.43;1.30;;;30.60;40.50;;;;;;5011489;28;20448;-66
2023/02/03 05:49:07;;;;;;;7.15;0.90;;;30.30;41.40;;;;;;5013067;28;20036;-66
2023/02/03 05:51:35;;;;;;;10.23;0.93;;;30.40;42.50;;;;;;4996345;28;20041;-64
2023/02/03 05:54:02;;;;;;;6.22;1.00;;;30.30;41.50;;;;;;5018864;28;20398;-64
2023/02/03 05:56:29;;;;;;;3.80;0.95;;;30.20;42.20;;;;;;4999105;28;20045;-63
2023/02/03 05:58:56;;;;;;;4.05;0.85;;;30.20;41.90;;;;;;5009761;28;20036;-63
2023/02/03 06:01:24;;;;;;;4.47;1.20;;;30.20;42.90;;;;;;5011957;28;20026;-64
2023/02/03 06:03:51;;;;;;;3.67;1.00;;;30.00;41.10;;;;;;5007986;28;20502;-64
2023/02/03 06:06:19;;;;;;;5.20;0.95;;;29.90;42.70;;;;;;5009173;28;20116;-64
2023/02/03 06:08:46;;;;;;;10.35;1.38;;;29.70;46.10;;;;;;5007078;28;20022;-65
2023/02/03 06:11:14;;;;;;;7.10;0.98;;;29.10;50.60;;;;;;5011749;28;20120;-65
2023/02/03 06:13:41;;;;;;;2.22;1.02;;;29.00;51.80;;;;;;5013642;28;20123;-65
2023/02/03 06:16:08;;;;;;;8.15;0.90;;;28.80;51.70;;;;;;5009508;28;20120;-65
2023/02/03 06:18:36;;;;;;;8.25;1.42;;;28.50;52.40;;;;;;4993823;28;20021;-64
2023/02/03 06:21:03;;;;;;;2.85;0.60;;;28.30;53.00;;;;;;5008486;28;20022;-64
2023/02/03 06:23:30;;;;;;;3.65;0.80;;;28.20;54.10;;;;;;5010019;28;20033;-66
2023/02/03 06:25:59;;;;;;;7.13;1.13;;;28.20;54.40;;;;;;5010639;28;20495;-66
2023/02/03 06:28:26;;;;;;;5.38;1.05;;;28.40;53.20;;;;;;4992226;28;20180;-65
2023/02/03 06:30:54;;;;;;;4.10;1.00;;;28.00;54.50;;;;;;5010602;28;20091;-64
2023/02/03 06:33:21;;;;;;;5.28;1.02;;;27.40;55.70;;;;;;4993244;28;20022;-64
2023/02/03 06:35:49;;;;;;;4.50;1.00;;;27.10;57.00;;;;;;5010050;28;20033;-63
2023/02/03 06:38:16;;;;;;;3.63;0.80;;;26.90;56.90;;;;;;5008251;28;20124;-64
2023/02/03 06:40:46;;;;;;;5.82;1.15;;;26.70;57.10;;;;;;4994455;28;20497;-63
2023/02/03 06:43:13;;;;;;;4.43;1.52;;;26.50;57.60;;;;;;5016178;28;20036;-63
2023/02/03 06:45:41;;;;;;;5.15;1.20;;;26.30;58.70;;;;;;5001904;28;20044;-64
2023/02/03 06:48:08;;;;;;;6.00;0.82;;;26.20;59.00;;;;;;5009383;28;20026;-64
2023/02/03 06:50:35;;;;;;;6.72;1.40;;;26.20;59.20;;;;;;5011254;28;20025;-64
2023/02/03 06:53:03;;;;;;;8.23;1.73;;;26.30;58.90;;;;;;4993095;28;20030;-64
2023/02/03 06:55:30;;;;;;;5.65;1.10;;;26.50;58.60;;;;;;5010952;28;20022;-64
2023/02/03 06:57:57;;;;;;;3.58;0.73;;;26.50;58.30;;;;;;5015040;28;20025;-64
2023/02/03 07:00:25;;;;;;;8.80;1.23;;;26.50;58.90;;;;;;5023169;28;20033;-64
2023/02/03 07:02:56;;;;;;;6.80;1.02;;;26.40;59.50;;;;;;5022152;28;20018;-63
2023/02/03 07:05:24;;;;;;;5.55;1.15;;;26.50;59.80;;;;;;5015491;28;20064;-65
2023/02/03 07:07:52;;;;;;;4.60;0.90;;;26.50;59.70;;;;;;5016633;28;20060;-64
2023/02/03 07:10:20;;;;;;;3.78;0.93;;;26.60;58.80;;;;;;5016487;28;20034;-65
2023/02/03 07:12:49;;;;;;;3.45;0.70;;;26.50;58.40;;;;;;5018343;28;20022;-64
2023/02/03 07:15:17;;;;;;;2.55;0.57;;;26.40;59.20;;;;;;5021009;28;20041;-65
2023/02/03 07:17:45;;;;;;;8.98;1.23;;;26.50;58.70;;;;;;5011105;28;20165;-64
2023/02/03 07:20:13;;;;;;;3.88;0.70;;;26.40;59.70;;;;;;5023531;28;20034;-64
2023/02/03 07:22:42;;;;;;;4.40;1.08;;;26.50;59.30;;;;;;5019150;28;20074;-64
2023/02/03 07:25:10;;;;;;;2.22;0.80;;;26.40;59.80;;;;;;5014202;28;20418;-63
2023/02/03 07:27:37;;;;;;;6.45;0.75;;;26.40;59.70;;;;;;4995781;28;20508;-64
2023/02/03 07:30:05;;;;;;;3.13;0.90;;;26.50;60.00;;;;;;5010452;28;20034;-65
2023/02/03 07:32:32;;;;;;;6.22;1.17;;;26.30;59.70;;;;;;4995166;28;20395;-64
2023/02/03 07:35:00;;;;;;;4.22;1.08;;;26.20;60.10;;;;;;4997880;28;20030;-66
2023/02/03 07:37:27;;;;;;;3.65;1.02;;;26.40;60.70;;;;;;5010128;28;20479;-65
2023/02/03 07:39:54;;;;;;;4.18;1.00;;;26.40;60.00;;;;;;5013418;28;20022;-66
2023/02/03 07:42:22;;;;;;;4.68;0.80;;;26.40;60.90;;;;;;5019598;28;20103;-66
2023/02/03 07:44:49;;;;;;;4.55;0.88;;;26.30;60.80;;;;;;5015026;28;20038;-62
2023/02/03 07:47:17;;;;;;;4.68;0.90;;;26.20;61.30;;;;;;5013560;28;20033;-62
2023/02/03 07:49:44;;;;;;;5.15;0.90;;;26.00;62.30;;;;;;5011036;28;20105;-62
2023/02/03 07:52:11;;;;;;;11.85;1.30;;;25.80;62.50;;;;;;5008779;28;20034;-62
2023/02/03 07:54:38;;;;;;;5.47;1.75;;;25.70;63.10;;;;;;5008565;28;20517;-62
2023/02/03 07:57:06;;;;;;;4.55;0.85;;;25.50;63.70;;;;;;5007141;28;20731;-62
2023/02/03 07:59:33;;;;;;;2.92;0.70;;;25.20;64.20;;;;;;5010287;28;20034;-62
2023/02/03 08:02:00;;;;;;;6.60;0.80;;;25.10;65.20;;;;;;5010651;28;20028;-63
2023/02/03 08:04:28;;;;;;;7.22;0.95;;;25.00;65.50;;;;;;5012423;28;20042;-62
2023/02/03 08:06:55;;;;;;;9.95;1.15;;;24.90;66.10;;;;;;5010108;28;20026;-62
2023/02/03 08:09:22;;;;;;;6.18;1.00;;;24.80;66.40;;;;;;5006205;28;20030;-61
2023/02/03 08:11:50;;;;;;;5.80;1.20;;;24.60;66.30;;;;;;5009088;28;20033;-62
2023/02/03 08:14:17;;;;;;;4.50;0.77;;;24.40;67.10;;;;;;5006950;28;20553;-62
2023/02/03 08:16:45;;;;;;;7.03;0.90;;;24.30;67.70;;;;;;5006427;28;20026;-61
2023/02/03 08:19:12;;;;;;;8.68;1.10;;;24.20;68.70;;;;;;5008224;28;20477;-62
2023/02/03 08:21:40;;;;;;;5.15;0.90;;;24.00;69.40;;;;;;5006817;28;20113;-62
2023/02/03 08:24:07;;;;;;;3.35;0.95;;;23.90;70.50;;;;;;4988563;28;20038;-62
2023/02/03 08:26:36;;;;;;;2.13;0.70;;;23.80;71.50;;;;;;5004524;28;20053;-62
2023/02/03 08:29:04;;;;;;;8.90;1.92;;;23.60;72.00;;;;;;5010163;28;20060;-62
2023/02/03 08:31:31;;;;;;;6.07;1.13;;;23.60;72.30;;;;;;5011838;28;20026;-62
2023/02/03 08:33:59;;;;;;;9.30;1.00;;;23.50;72.70;;;;;;4991809;28;20079;-62
2023/02/03 08:36:26;;;;;;;4.40;1.30;;;23.40;72.20;;;;;;5014731;28;20029;-62
2023/02/03 08:38:53;;;;;;;4.78;1.02;;;23.30;72.70;;;;;;5010449;28;20371;-62
2023/02/03 08:41:21;;;;;;;4.75;1.02;;;23.20;72.80;;;;;;5007904;28;20026;-61
2023/02/03 08:43:48;;;;;;;8.68;1.75;;;23.10;73.50;;;;;;5016411;28;20065;-62
2023/02/03 08:46:15;;;;;;;9.65;1.58;;;23.10;74.30;;;;;;5018235;28;20372;-62
2023/02/03 08:48:42;;;;;;;4.30;0.98;;;23.00;74.60;;;;;;5007350;28;20088;-66
2023/02/03 08:51:14;;;;;;;10.07;1.90;;;23.00;75.50;;;;;;5011797;28;20025;-65
2023/02/03 08:53:42;;;;;;;3.25;0.70;;;22.90;76.20;;;;;;5016936;28;20474;-66
2023/02/03 08:56:11;;;;;;;3.83;0.90;;;22.90;76.80;;;;;;5009898;28;20033;-65
2023/02/03 08:58:39;;;;;;;6.10;1.70;;;22.80;77.40;;;;;;5015373;28;20029;-66
2023/02/03 09:01:15;;;;;;;3.72;0.90;;;22.70;77.80;;;;;;5011511;28;20121;-65
2023/02/03 09:03:42;;;;;;;7.25;1.45;;;22.60;79.10;;;;;;5009881;28;20573;-65
2023/02/03 09:06:15;;;;;;;4.40;1.10;;;22.60;79.70;;;;;;5007910;28;20041;-65
2023/02/03 09:08:44;;;;;;;6.50;0.98;;;22.50;80.60;;;;;;5019957;28;20187;-64
2023/02/03 09:11:14;;;;;;;2.78;0.63;;;22.40;81.30;;;;;;5021304;28;20030;-65
2023/02/03 09:13:44;;;;;;;6.47;1.17;;;22.40;81.80;;;;;;5007788;28;20144;-65
2023/02/03 09:16:15;;;;;;;4.68;1.00;;;22.30;82.30;;;;;;5009744;28;20038;-66
2023/02/03 09:18:44;;;;;;;8.10;1.23;;;22.20;83.70;;;;;;5011976;28;20026;-65
2023/02/03 09:21:15;;;;;;;4.68;1.98;;;22.20;84.10;;;;;;5002109;28;20037;-65
2023/02/03 09:23:43;;;;;;;6.32;0.90;;;22.20;84.50;;;;;;5009189;28;20557;-65
2023/02/03 09:26:15;;;;;;;3.88;1.15;;;22.10;84.90;;;;;;5010389;28;20037;-66
2023/02/03 09:28:42;;;;;;;9.13;1.10;;;22.10;85.90;;;;;;5018055;28;20509;-66
2023/02/03 09:31:12;;;;;;;4.32;1.15;;;22.00;85.90;;;;;;5030107;28;20537;-65
2023/02/03 09:33:40;;;;;;;4.75;0.90;;;22.00;86.60;;;;;;5030708;28;20022;-65
2023/02/03 09:36:09;;;;;;;7.60;0.98;;;22.00;87.20;;;;;;5029893;28;20033;-61
2023/02/03 09:38:37;;;;;;;3.95;0.93;;;22.00;87.90;;;;;;5005396;28;20033;-61
2023/02/03 09:41:33;;;;;;;11.85;1.50;;;21.90;88.50;;;;;;5029556;28;20049;-61
2023/02/03 09:44:06;;;;;;;7.00;1.88;;;21.90;89.70;;;;;;5020786;28;21769;-60
2023/02/03 09:46:58;;;;;;;7.72;1.10;;;21.80;90.30;;;;;;5030715;28;20501;-62
2023/02/03 09:49:49;;;;;;;3.20;0.93;;;21.70;90.60;;;;;;5030134;28;20456;-61
2023/02/03 09:52:21;;;;;;;4.00;1.25;;;21.70;90.90;;;;;;4991518;28;20045;-62
2023/02/03 09:55:11;;;;;;;4.15;1.00;;;21.70;90.80;;;;;;5028144;28;20033;-63
2023/02/03 09:58:04;;;;;;;4.05;0.80;;;21.60;91.20;;;;;;5030361;28;20025;-63
2023/02/03 10:00:41;;;;;;;5.93;1.08;;;21.50;91.40;;;;;;4994889;28;20084;-63
2023/02/03 10:03:52;;;;;;;6.20;1.40;;;21.50;91.60;;;;;;5013916;28;20065;-63
2023/02/03 10:06:40;;;;;;;3.28;0.85;;;21.30;92.30;;;;;;4957738;28;20050;-63
2023/02/03 10:09:28;;;;;;;5.07;1.05;;;21.20;92.70;;;;;;4998703;28;20084;-63
2023/02/03 10:12:08;;;;;;;5.95;1.25;;;21.10;93.10;;;;;;5009258;28;20030;-64
2023/02/03 10:14:44;;;;;;;7.05;1.25;;;21.10;93.50;;;;;;4996187;28;20041;-63
2023/02/03 10:17:46;;;;;;;13.32;2.70;;;20.90;94.30;;;;;;5008655;28;20034;-64
2023/02/03 10:20:34;;;;;;;10.70;1.27;;;20.90;94.40;;;;;;5002053;28;20033;-64
2023/02/03 10:23:35;;;;;;;4.38;1.08;;;20.80;94.80;;;;;;5009214;28;20034;-61
2023/02/03 10:26:14;;;;;;;4.22;1.13;;;20.70;95.40;;;;;;5010102;28;20128;-62
2023/02/03 10:28:54;;;;;;;5.90;1.10;;;20.60;96.00;;;;;;5029070;28;20028;-63
2023/02/03 10:31:27;;;;;;;7.47;1.60;;;20.60;96.60;;;;;;5028394;28;20037;-62
2023/02/03 10:34:12;;;;;;;3.65;1.00;;;20.50;96.60;;;;;;5029232;28;20032;-63
2023/02/03 10:37:23;;;;;;;4.53;1.23;;;20.50;96.80;;;;;;4993393;28;20026;-64
2023/02/03 10:39:52;;;;;;;8.68;1.17;;;20.40;97.70;;;;;;4929968;29;20151;-63
2023/02/03 10:42:21;;;;;;;4.72;0.82;;;20.40;97.70;;;;;;4947621;29;20366;-63
2023/02/03 10:44:58;;;;;;;8.02;1.88;;;20.30;98.00;;;;;;4973450;28;20504;-64
2023/02/03 10:47:27;;;;;;;4.75;1.27;;;20.30;97.90;;;;;;5022067;28;20039;-63
2023/02/03 10:49:57;;;;;;;10.80;1.00;;;20.30;97.60;;;;;;5023339;28;20055;-62
2023/02/03 10:52:33;;;;;;;6.55;0.90;;;20.30;98.10;;;;;;5009177;28;20131;-63
2023/02/03 10:55:07;;;;;;;3.97;1.02;;;20.20;98.20;;;;;;5009082;28;20030;-63
2023/02/03 10:57:38;;;;;;;6.03;1.10;;;20.10;98.40;;;;;;4991681;28;20506;-63
2023/02/03 11:00:30;;;;;;;4.00;1.00;;;20.10;98.60;;;;;;5016575;28;20042;-62
2023/02/03 11:03:26;;;;;;;3.35;1.10;;;20.00;98.40;;;;;;5014011;28;20037;-65
2023/02/03 11:06:13;;;;;;;7.97;1.30;;;19.80;99.50;;;;;;5024888;28;20053;-64
2023/02/03 11:08:46;;;;;;;8.90;2.00;;;19.70;99.90;;;;;;5028692;28;20037;-64
2023/02/03 11:11:33;;;;;;;6.20;1.08;;;19.60;99.90;;;;;;5028773;28;20112;-64
2023/02/03 11:14:03;;;;;;;4.82;1.23;;;19.50;99.90;;;;;;5028210;28;20045;-64
2023/02/03 11:16:33;;;;;;;3.60;1.05;;;19.40;99.90;;;;;;5010243;28;20388;-65
2023/02/03 11:19:22;;;;;;;8.32;1.27;;;19.40;99.90;;;;;;4991803;28;20025;-64
2023/02/03 11:21:58;;;;;;;4.50;1.48;;;19.30;99.90;;;;;;5017047;28;20395;-62
2023/02/03 11:24:38;;;;;;;7.95;1.20;;;19.20;99.90;;;;;;5028168;28;20045;-63
2023/02/03 11:27:18;;;;;;;6.97;2.20;;;19.10;99.90;;;;;;5028547;28;20022;-64
2023/02/03 11:29:50;;;;;;;3.67;1.80;;;19.00;99.90;;;;;;5010527;28;20026;-63
2023/02/03 11:32:21;;;;;;;5.13;1.00;;;18.90;99.90;;;;;;5013193;28;20029;-64
2023/02/03 11:35:18;;;;;;;2.53;1.00;;;18.80;99.90;;;;;;5028521;28;20053;-63
2023/02/03 11:37:48;;;;;;;8.50;1.60;;;18.70;99.90;;;;;;5010156;28;20083;-63
2023/02/03 11:40:17;;;;;;;3.72;1.65;;;18.70;99.90;;;;;;5004503;28;20030;-64
2023/02/03 11:42:59;;;;;;;7.30;1.33;;;18.60;99.90;;;;;;5010019;28;20026;-64
2023/02/03 11:45:40;;;;;;;2.95;0.85;;;18.60;99.90;;;;;;5010870;28;20052;-62
2023/02/03 11:48:14;;;;;;;6.82;1.30;;;18.50;99.90;;;;;;5012982;28;20096;-62
2023/02/03 11:50:59;;;;;;;5.15;1.40;;;18.50;99.90;;;;;;5010472;28;20038;-62
2023/02/03 11:54:06;;;;;;;6.53;1.30;;;18.40;99.90;;;;;;5028384;28;20063;-63
2023/02/03 11:56:57;;;;;;;7.78;1.55;;;18.40;99.90;;;;;;5030509;28;20113;-63
2023/02/03 11:59:34;;;;;;;6.13;1.77;;;18.50;99.90;;;;;;5030534;28;20017;-62
2023/02/03 12:02:23;;;;;;;6.25;1.48;;;18.60;99.90;;;;;;5030590;28;20063;-63
2023/02/03 12:05:40;;;;;;;7.90;1.70;;;18.70;99.90;;;;;;5012785;28;20033;-63
2023/02/03 12:08:37;;;;;;;5.10;1.13;;;18.90;99.90;;;;;;4996795;28;20122;-63
2023/02/03 12:11:07;;;;;;;5.40;1.48;;;18.90;99.90;;;;;;5000990;28;20498;-63
2023/02/03 12:14:05;;;;;;;8.45;1.35;;;19.00;99.90;;;;;;5019997;28;20053;-63
2023/02/03 12:17:35;;;;;;;6.13;1.40;;;19.20;99.90;;;;;;5030419;28;20053;-63
2023/02/03 12:20:52;;;;;;;6.20;1.27;;;19.30;99.90;;;;;;4996441;28;20084;-63
2023/02/03 12:23:23;;;;;;;4.50;1.13;;;19.40;96.70;;;;;;4974010;28;20042;-63
2023/02/03 12:26:01;;;;;;;6.40;1.83;;;19.40;96.40;;;;;;4999528;28;20045;-63
2023/02/03 12:28:50;;;;;;;5.55;1.38;;;19.40;95.00;;;;;;5010160;28;20026;-62
2023/02/03 12:31:34;;;;;;;2.78;0.85;;;19.40;94.40;;;;;;5017185;28;20060;-65
2023/02/03 12:34:12;;;;;;;3.33;0.90;;;19.40;93.40;;;;;;5012315;28;20026;-61
2023/02/03 12:37:17;;;;;;;4.70;1.25;;;19.50;92.20;;;;;;5029973;28;20079;-62
2023/02/03 12:39:53;;;;;;;5.25;0.90;;;19.50;89.30;;;;;;4995970;28;20033;-62
2023/02/03 12:42:41;;;;;;;6.68;1.63;;;19.40;87.10;;;;;;5028719;28;20071;-62
2023/02/03 12:45:08;;;;;;;5.72;1.15;;;19.40;81.80;;;;;;5029890;28;20124;-62
2023/02/03 12:48:04;;;;;;;7.50;0.82;;;19.40;80.30;;;;;;5029874;28;20026;-62
2023/02/03 12:50:45;;;;;;;;;;;19.40;77.40;;;;;;5029296;28;20033;-64
2023/02/03 12:53:12;;;;;;;4.57;1.13;;;19.30;76.70;;;;;;4990437;28;20370;-63
2023/02/03 12:55:44;;;;;;;4.85;0.95;;;19.20;75.60;;;;;;4990449;28;20022;-61
2023/02/03 12:58:29;;;;;;;3.97;0.80;;;19.10;74.30;;;;;;4992456;28;20106;-63
2023/02/03 13:00:56;;;;;;;;;;;19.00;73.70;;;;;;4995567;28;20030;-63
2023/02/03 13:03:47;;;;;;;7.28;0.90;;;18.90;73.30;;;;;;5029515;28;19955;-63
2023/02/03 13:06:53;;;;;;;3.22;1.05;;;18.90;73.50;;;;;;5014595;28;20033;-63
2023/02/03 13:09:42;;;;;;;3.47;0.52;;;18.90;71.10;;;;;;4997361;28;20041;-62
2023/02/03 13:12:34;;;;;;;6.28;1.02;;;19.00;71.40;;;;;;5012984;28;20183;-63
2023/02/03 13:15:20;;;;;;;4.28;1.10;;;19.00;69.40;;;;;;5002258;28;20514;-63
2023/02/03 13:17:59;;;;;;;10.48;1.63;;;19.10;69.20;;;;;;4992608;28;20026;-62
2023/02/03 13:20:33;;;;;;;9.95;2.13;;;19.20;68.50;;;;;;5009663;28;20410;-63
2023/02/03 13:23:04;;;;;;;10.05;1.33;;;19.30;68.00;;;;;;5009471;28;20109;-62
2023/02/03 13:25:52;;;;;;;25.42;1.88;;;19.30;67.10;;;;;;5023415;28;20045;-63